sensor_id;sensor_type;location;lat;lon;timestamp;temperature;humidity
68922;DHT22;55959;51.244;5.724;2023-04-05T00:01:42;8.30;53.30
68922;DHT22;55959;51.244;5.724;2023-04-05T00:04:08;8.30;53.30
68922;DHT22;55959;51.244;5.724;2023-04-05T00:06:35;8.30;53.50
68922;DHT22;55959;51.244;5.724;2023-04-05T00:09:04;8.20;53.70
68922;DHT22;55959;51.244;5.724;2023-04-05T00:11:31;8.20;53.90
68922;DHT22;55959;51.244;5.724;2023-04-05T00:14:02;8.10;54.70
68922;DHT22;55959;51.244;5.724;2023-04-05T00:16:29;8.10;54.20
68922;DHT22;55959;51.244;5.724;2023-04-05T00:18:56;8.10;54.30
68922;DHT22;55959;51.244;5.724;2023-04-05T00:21:22;8.00;54.50
68922;DHT22;55959;51.244;5.724;2023-04-05T00:23:53;8.00;54.60
68922;DHT22;55959;51.244;5.724;2023-04-05T00:26:21;7.90;54.70
68922;DHT22;55959;51.244;5.724;2023-04-05T00:28:48;7.90;54.70
68922;DHT22;55959;51.244;5.724;2023-04-05T00:31:14;7.90;54.70
68922;DHT22;55959;51.244;5.724;2023-04-05T00:33:39;7.80;54.80
68922;DHT22;55959;51.244;5.724;2023-04-05T00:36:09;7.80;54.90
68922;DHT22;55959;51.244;5.724;2023-04-05T00:38:44;7.80;55.00
68922;DHT22;55959;51.244;5.724;2023-04-05T00:41:11;7.70;55.10
68922;DHT22;55959;51.244;5.724;2023-04-05T00:43:38;7.70;55.20
68922;DHT22;55959;51.244;5.724;2023-04-05T00:46:05;7.60;55.10
68922;DHT22;55959;51.244;5.724;2023-04-05T00:48:33;7.60;55.20
68922;DHT22;55959;51.244;5.724;2023-04-05T00:50:59;7.60;55.30
68922;DHT22;55959;51.244;5.724;2023-04-05T00:53:25;7.50;55.40
68922;DHT22;55959;51.244;5.724;2023-04-05T00:55:55;7.50;55.60
68922;DHT22;55959;51.244;5.724;2023-04-05T00:58:22;7.50;55.60
68922;DHT22;55959;51.244;5.724;2023-04-05T01:01:18;7.40;55.70
68922;DHT22;55959;51.244;5.724;2023-04-05T01:03:52;7.40;55.80
68922;DHT22;55959;51.244;5.724;2023-04-05T01:06:45;7.30;55.80
68922;DHT22;55959;51.244;5.724;2023-04-05T01:09:47;7.30;55.80
68922;DHT22;55959;51.244;5.724;2023-04-05T01:12:17;7.20;55.80
68922;DHT22;55959;51.244;5.724;2023-04-05T01:14:49;7.20;56.40
68922;DHT22;55959;51.244;5.724;2023-04-05T01:17:17;7.10;55.80
68922;DHT22;55959;51.244;5.724;2023-04-05T01:19:55;7.10;55.90
68922;DHT22;55959;51.244;5.724;2023-04-05T01:25:56;7.10;55.90
68922;DHT22;55959;51.244;5.724;2023-04-05T01:28:58;7.00;55.90
68922;DHT22;55959;51.244;5.724;2023-04-05T01:31:33;6.90;55.80
68922;DHT22;55959;51.244;5.724;2023-04-05T01:36:59;6.90;55.90
68922;DHT22;55959;51.244;5.724;2023-04-05T01:39:27;6.80;55.80
68922;DHT22;55959;51.244;5.724;2023-04-05T01:41:59;6.80;55.90
68922;DHT22;55959;51.244;5.724;2023-04-05T01:44:26;6.70;55.90
68922;DHT22;55959;51.244;5.724;2023-04-05T01:46:52;6.70;55.90
68922;DHT22;55959;51.244;5.724;2023-04-05T01:49:18;6.70;55.90
68922;DHT22;55959;51.244;5.724;2023-04-05T01:51:43;6.60;56.00
68922;DHT22;55959;51.244;5.724;2023-04-05T01:54:09;6.60;56.00
68922;DHT22;55959;51.244;5.724;2023-04-05T01:56:35;6.60;56.10
68922;DHT22;55959;51.244;5.724;2023-04-05T01:59:00;6.60;56.10
68922;DHT22;55959;51.244;5.724;2023-04-05T02:01:26;6.60;56.10
68922;DHT22;55959;51.244;5.724;2023-04-05T02:03:52;6.50;56.10
68922;DHT22;55959;51.244;5.724;2023-04-05T02:06:18;6.50;56.10
68922;DHT22;55959;51.244;5.724;2023-04-05T02:08:43;6.50;56.10
68922;DHT22;55959;51.244;5.724;2023-04-05T02:11:09;6.50;56.20
68922;DHT22;55959;51.244;5.724;2023-04-05T02:13:35;6.40;56.10
68922;DHT22;55959;51.244;5.724;2023-04-05T02:16:01;6.40;56.20
68922;DHT22;55959;51.244;5.724;2023-04-05T02:18:27;6.30;56.20
68922;DHT22;55959;51.244;5.724;2023-04-05T02:21:07;6.30;56.30
68922;DHT22;55959;51.244;5.724;2023-04-05T02:23:35;6.30;56.40
68922;DHT22;55959;51.244;5.724;2023-04-05T02:26:01;6.20;56.30
68922;DHT22;55959;51.244;5.724;2023-04-05T02:28:27;6.20;56.40
68922;DHT22;55959;51.244;5.724;2023-04-05T02:30:53;6.20;56.60
68922;DHT22;55959;51.244;5.724;2023-04-05T02:33:19;6.10;56.80
68922;DHT22;55959;51.244;5.724;2023-04-05T02:35:48;6.10;56.90
68922;DHT22;55959;51.244;5.724;2023-04-05T02:38:14;6.10;57.10
68922;DHT22;55959;51.244;5.724;2023-04-05T02:40:40;6.10;57.20
68922;DHT22;55959;51.244;5.724;2023-04-05T02:43:06;6.00;57.90
68922;DHT22;55959;51.244;5.724;2023-04-05T02:45:32;6.00;57.30
68922;DHT22;55959;51.244;5.724;2023-04-05T02:47:58;6.00;57.40
68922;DHT22;55959;51.244;5.724;2023-04-05T02:50:24;6.00;57.60
68922;DHT22;55959;51.244;5.724;2023-04-05T02:52:50;5.90;57.70
68922;DHT22;55959;51.244;5.724;2023-04-05T02:55:17;5.90;57.70
68922;DHT22;55959;51.244;5.724;2023-04-05T02:57:43;5.90;57.70
68922;DHT22;55959;51.244;5.724;2023-04-05T03:00:09;5.80;57.70
68922;DHT22;55959;51.244;5.724;2023-04-05T03:02:36;5.80;57.70
68922;DHT22;55959;51.244;5.724;2023-04-05T03:05:03;5.80;57.90
68922;DHT22;55959;51.244;5.724;2023-04-05T03:07:29;5.80;58.00
68922;DHT22;55959;51.244;5.724;2023-04-05T03:09:57;5.70;57.90
68922;DHT22;55959;51.244;5.724;2023-04-05T03:12:24;5.70;57.90
68922;DHT22;55959;51.244;5.724;2023-04-05T03:14:50;5.70;57.90
68922;DHT22;55959;51.244;5.724;2023-04-05T03:17:16;5.70;57.90
68922;DHT22;55959;51.244;5.724;2023-04-05T03:19:42;5.60;57.90
68922;DHT22;55959;51.244;5.724;2023-04-05T03:22:07;5.60;58.00
68922;DHT22;55959;51.244;5.724;2023-04-05T03:24:34;5.60;58.00
68922;DHT22;55959;51.244;5.724;2023-04-05T03:27:01;5.60;58.10
68922;DHT22;55959;51.244;5.724;2023-04-05T03:29:28;5.50;58.00
68922;DHT22;55959;51.244;5.724;2023-04-05T03:31:53;5.50;58.00
68922;DHT22;55959;51.244;5.724;2023-04-05T03:34:20;5.50;58.00
68922;DHT22;55959;51.244;5.724;2023-04-05T03:36:46;5.40;58.00
68922;DHT22;55959;51.244;5.724;2023-04-05T03:39:14;5.40;58.00
68922;DHT22;55959;51.244;5.724;2023-04-05T03:41:40;5.40;58.00
68922;DHT22;55959;51.244;5.724;2023-04-05T03:44:07;5.40;58.00
68922;DHT22;55959;51.244;5.724;2023-04-05T03:46:33;5.30;58.10
68922;DHT22;55959;51.244;5.724;2023-04-05T03:49:02;5.30;58.10
68922;DHT22;55959;51.244;5.724;2023-04-05T03:51:28;5.30;58.20
68922;DHT22;55959;51.244;5.724;2023-04-05T03:53:54;5.30;58.20
68922;DHT22;55959;51.244;5.724;2023-04-05T03:56:20;5.30;58.20
68922;DHT22;55959;51.244;5.724;2023-04-05T03:58:46;5.20;58.30
68922;DHT22;55959;51.244;5.724;2023-04-05T04:01:12;5.20;58.40
68922;DHT22;55959;51.244;5.724;2023-04-05T04:03:37;5.20;58.40
68922;DHT22;55959;51.244;5.724;2023-04-05T04:06:04;5.20;58.40
68922;DHT22;55959;51.244;5.724;2023-04-05T04:08:31;5.10;58.40
68922;DHT22;55959;51.244;5.724;2023-04-05T04:10:58;5.10;58.40
68922;DHT22;55959;51.244;5.724;2023-04-05T04:13:23;5.10;58.50
68922;DHT22;55959;51.244;5.724;2023-04-05T04:15:49;5.10;58.60
68922;DHT22;55959;51.244;5.724;2023-04-05T04:18:15;5.10;58.60
68922;DHT22;55959;51.244;5.724;2023-04-05T04:20:41;5.00;58.70
68922;DHT22;55959;51.244;5.724;2023-04-05T04:23:07;5.00;58.80
68922;DHT22;55959;51.244;5.724;2023-04-05T04:25:37;5.00;58.80
68922;DHT22;55959;51.244;5.724;2023-04-05T04:28:04;5.00;58.90
68922;DHT22;55959;51.244;5.724;2023-04-05T04:30:34;5.00;59.00
68922;DHT22;55959;51.244;5.724;2023-04-05T04:33:00;4.90;59.00
68922;DHT22;55959;51.244;5.724;2023-04-05T04:35:30;4.90;59.10
68922;DHT22;55959;51.244;5.724;2023-04-05T04:37:59;4.80;59.10
68922;DHT22;55959;51.244;5.724;2023-04-05T04:40:34;4.80;59.10
68922;DHT22;55959;51.244;5.724;2023-04-05T04:43:09;4.80;59.20
68922;DHT22;55959;51.244;5.724;2023-04-05T04:45:41;4.80;59.20
68922;DHT22;55959;51.244;5.724;2023-04-05T04:48:11;4.70;59.20
68922;DHT22;55959;51.244;5.724;2023-04-05T04:50:39;4.80;59.40
68922;DHT22;55959;51.244;5.724;2023-04-05T04:53:05;4.70;59.30
68922;DHT22;55959;51.244;5.724;2023-04-05T04:55:31;4.60;59.40
68922;DHT22;55959;51.244;5.724;2023-04-05T04:57:58;4.60;59.50
68922;DHT22;55959;51.244;5.724;2023-04-05T05:00:24;4.60;59.50
68922;DHT22;55959;51.244;5.724;2023-04-05T05:02:54;4.60;59.60
68922;DHT22;55959;51.244;5.724;2023-04-05T05:05:20;4.60;59.60
68922;DHT22;55959;51.244;5.724;2023-04-05T05:07:47;4.60;59.70
68922;DHT22;55959;51.244;5.724;2023-04-05T05:10:13;4.50;59.70
68922;DHT22;55959;51.244;5.724;2023-04-05T05:12:41;4.50;59.80
68922;DHT22;55959;51.244;5.724;2023-04-05T05:15:08;4.50;59.80
68922;DHT22;55959;51.244;5.724;2023-04-05T05:17:35;4.50;59.90
68922;DHT22;55959;51.244;5.724;2023-04-05T05:20:02;4.50;60.00
68922;DHT22;55959;51.244;5.724;2023-04-05T05:22:37;4.40;60.00
68922;DHT22;55959;51.244;5.724;2023-04-05T05:25:04;4.50;60.20
68922;DHT22;55959;51.244;5.724;2023-04-05T05:27:31;4.40;60.30
68922;DHT22;55959;51.244;5.724;2023-04-05T05:29:58;4.40;60.30
68922;DHT22;55959;51.244;5.724;2023-04-05T05:32:24;4.40;60.40
68922;DHT22;55959;51.244;5.724;2023-04-05T05:34:50;4.40;60.50
68922;DHT22;55959;51.244;5.724;2023-04-05T05:37:16;4.40;60.50
68922;DHT22;55959;51.244;5.724;2023-04-05T05:39:45;4.40;60.60
68922;DHT22;55959;51.244;5.724;2023-04-05T05:42:10;4.40;60.60
68922;DHT22;55959;51.244;5.724;2023-04-05T05:44:36;4.40;60.50
68922;DHT22;55959;51.244;5.724;2023-04-05T05:47:03;4.40;60.60
68922;DHT22;55959;51.244;5.724;2023-04-05T05:49:29;4.40;60.60
68922;DHT22;55959;51.244;5.724;2023-04-05T05:52:02;4.40;60.70
68922;DHT22;55959;51.244;5.724;2023-04-05T05:54:28;4.40;61.10
68922;DHT22;55959;51.244;5.724;2023-04-05T05:56:54;4.50;61.50
68922;DHT22;55959;51.244;5.724;2023-04-05T05:59:20;4.40;61.70
68922;DHT22;55959;51.244;5.724;2023-04-05T06:01:45;4.50;62.10
68922;DHT22;55959;51.244;5.724;2023-04-05T06:04:12;4.60;62.40
68922;DHT22;55959;51.244;5.724;2023-04-05T06:06:38;4.60;62.50
68922;DHT22;55959;51.244;5.724;2023-04-05T06:09:07;4.70;62.80
68922;DHT22;55959;51.244;5.724;2023-04-05T06:11:32;4.70;63.10
68922;DHT22;55959;51.244;5.724;2023-04-05T06:13:58;4.80;63.30
68922;DHT22;55959;51.244;5.724;2023-04-05T06:16:24;4.90;63.60
68922;DHT22;55959;51.244;5.724;2023-04-05T06:18:50;5.00;63.70
68922;DHT22;55959;51.244;5.724;2023-04-05T06:21:15;5.00;64.00
68922;DHT22;55959;51.244;5.724;2023-04-05T06:23:43;5.10;64.40
68922;DHT22;55959;51.244;5.724;2023-04-05T06:26:18;5.30;64.70
68922;DHT22;55959;51.244;5.724;2023-04-05T06:28:48;5.40;64.80
68922;DHT22;55959;51.244;5.724;2023-04-05T06:31:15;5.50;64.90
68922;DHT22;55959;51.244;5.724;2023-04-05T06:33:42;5.60;65.00
68922;DHT22;55959;51.244;5.724;2023-04-05T06:36:08;5.80;65.00
68922;DHT22;55959;51.244;5.724;2023-04-05T06:38:34;5.90;64.90
68922;DHT22;55959;51.244;5.724;2023-04-05T06:41:01;6.00;64.80
68922;DHT22;55959;51.244;5.724;2023-04-05T06:43:27;6.20;64.80
68922;DHT22;55959;51.244;5.724;2023-04-05T06:45:58;6.40;64.70
68922;DHT22;55959;51.244;5.724;2023-04-05T06:48:25;6.60;64.50
68922;DHT22;55959;51.244;5.724;2023-04-05T06:51:00;6.80;64.00
68922;DHT22;55959;51.244;5.724;2023-04-05T06:53:27;7.10;64.20
68922;DHT22;55959;51.244;5.724;2023-04-05T06:55:54;7.40;64.20
68922;DHT22;55959;51.244;5.724;2023-04-05T06:58:21;7.80;64.00
68922;DHT22;55959;51.244;5.724;2023-04-05T07:00:51;8.20;63.90
68922;DHT22;55959;51.244;5.724;2023-04-05T07:03:18;8.60;63.40
68922;DHT22;55959;51.244;5.724;2023-04-05T07:05:53;9.00;63.10
68922;DHT22;55959;51.244;5.724;2023-04-05T07:08:22;9.50;62.00
68922;DHT22;55959;51.244;5.724;2023-04-05T07:10:48;10.00;60.70
68922;DHT22;55959;51.244;5.724;2023-04-05T07:13:15;10.40;59.40
68922;DHT22;55959;51.244;5.724;2023-04-05T07:15:42;10.80;58.20
68922;DHT22;55959;51.244;5.724;2023-04-05T07:18:09;11.00;57.20
68922;DHT22;55959;51.244;5.724;2023-04-05T07:20:34;11.30;56.30
68922;DHT22;55959;51.244;5.724;2023-04-05T07:23:00;11.50;55.60
68922;DHT22;55959;51.244;5.724;2023-04-05T07:25:26;11.70;55.20
68922;DHT22;55959;51.244;5.724;2023-04-05T07:27:52;12.00;55.30
68922;DHT22;55959;51.244;5.724;2023-04-05T07:30:18;12.40;55.60
68922;DHT22;55959;51.244;5.724;2023-04-05T07:32:44;12.70;55.00
68922;DHT22;55959;51.244;5.724;2023-04-05T07:35:10;13.00;53.80
68922;DHT22;55959;51.244;5.724;2023-04-05T07:37:36;13.20;52.90
68922;DHT22;55959;51.244;5.724;2023-04-05T07:40:02;13.20;51.80
68922;DHT22;55959;51.244;5.724;2023-04-05T07:42:30;13.20;51.10
68922;DHT22;55959;51.244;5.724;2023-04-05T07:44:56;13.20;50.50
68922;DHT22;55959;51.244;5.724;2023-04-05T07:47:22;13.10;50.10
68922;DHT22;55959;51.244;5.724;2023-04-05T07:49:48;13.00;49.90
68922;DHT22;55959;51.244;5.724;2023-04-05T07:52:14;12.90;50.50
68922;DHT22;55959;51.244;5.724;2023-04-05T07:54:40;12.70;49.80
68922;DHT22;55959;51.244;5.724;2023-04-05T07:57:08;12.60;49.70
68922;DHT22;55959;51.244;5.724;2023-04-05T07:59:34;12.50;49.60
68922;DHT22;55959;51.244;5.724;2023-04-05T08:02:02;12.30;49.50
68922;DHT22;55959;51.244;5.724;2023-04-05T08:04:28;12.30;49.50
68922;DHT22;55959;51.244;5.724;2023-04-05T08:06:54;12.10;49.60
68922;DHT22;55959;51.244;5.724;2023-04-05T08:09:20;12.00;50.00
68922;DHT22;55959;51.244;5.724;2023-04-05T08:11:46;11.90;50.20
68922;DHT22;55959;51.244;5.724;2023-04-05T08:14:12;11.90;50.50
68922;DHT22;55959;51.244;5.724;2023-04-05T08:16:38;11.80;50.40
68922;DHT22;55959;51.244;5.724;2023-04-05T08:19:03;11.80;50.50
68922;DHT22;55959;51.244;5.724;2023-04-05T08:21:29;11.70;50.40
68922;DHT22;55959;51.244;5.724;2023-04-05T08:23:55;11.70;50.40
68922;DHT22;55959;51.244;5.724;2023-04-05T08:26:20;11.70;50.40
68922;DHT22;55959;51.244;5.724;2023-04-05T08:28:47;11.60;50.10
68922;DHT22;55959;51.244;5.724;2023-04-05T08:31:13;11.70;50.10
68922;DHT22;55959;51.244;5.724;2023-04-05T08:33:39;11.60;50.10
68922;DHT22;55959;51.244;5.724;2023-04-05T08:36:08;11.60;50.20
68922;DHT22;55959;51.244;5.724;2023-04-05T08:38:35;11.60;50.40
68922;DHT22;55959;51.244;5.724;2023-04-05T08:41:19;11.60;50.00
68922;DHT22;55959;51.244;5.724;2023-04-05T08:43:59;11.60;50.00
68922;DHT22;55959;51.244;5.724;2023-04-05T08:46:29;11.50;49.80
68922;DHT22;55959;51.244;5.724;2023-04-05T08:48:57;11.50;49.70
68922;DHT22;55959;51.244;5.724;2023-04-05T08:51:24;11.60;48.90
68922;DHT22;55959;51.244;5.724;2023-04-05T08:53:51;11.50;47.90
68922;DHT22;55959;51.244;5.724;2023-04-05T08:56:25;11.60;48.60
68922;DHT22;55959;51.244;5.724;2023-04-05T08:59:00;11.60;48.90
68922;DHT22;55959;51.244;5.724;2023-04-05T09:01:35;11.60;48.80
68922;DHT22;55959;51.244;5.724;2023-04-05T09:04:08;11.70;48.60
68922;DHT22;55959;51.244;5.724;2023-04-05T09:06:37;11.70;48.60
68922;DHT22;55959;51.244;5.724;2023-04-05T09:09:08;11.70;48.60
68922;DHT22;55959;51.244;5.724;2023-04-05T09:11:35;11.70;48.10
68922;DHT22;55959;51.244;5.724;2023-04-05T09:14:03;11.80;47.30
68922;DHT22;55959;51.244;5.724;2023-04-05T09:16:37;11.80;47.10
68922;DHT22;55959;51.244;5.724;2023-04-05T09:19:04;11.80;47.10
68922;DHT22;55959;51.244;5.724;2023-04-05T09:21:30;11.90;47.50
68922;DHT22;55959;51.244;5.724;2023-04-05T09:24:35;11.90;46.80
68922;DHT22;55959;51.244;5.724;2023-04-05T09:27:08;12.00;46.60
68922;DHT22;55959;51.244;5.724;2023-04-05T09:29:42;12.00;46.60
68922;DHT22;55959;51.244;5.724;2023-04-05T09:32:13;12.00;46.20
68922;DHT22;55959;51.244;5.724;2023-04-05T09:34:41;12.00;45.90
68922;DHT22;55959;51.244;5.724;2023-04-05T09:37:16;12.10;45.50
68922;DHT22;55959;51.244;5.724;2023-04-05T09:39:44;12.20;46.00
68922;DHT22;55959;51.244;5.724;2023-04-05T09:42:15;12.20;45.90
68922;DHT22;55959;51.244;5.724;2023-04-05T09:44:54;12.20;45.20
68922;DHT22;55959;51.244;5.724;2023-04-05T09:47:27;12.30;45.00
68922;DHT22;55959;51.244;5.724;2023-04-05T09:50:00;12.30;44.80
68922;DHT22;55959;51.244;5.724;2023-04-05T09:52:30;12.30;44.40
68922;DHT22;55959;51.244;5.724;2023-04-05T09:54:59;12.40;43.40
68922;DHT22;55959;51.244;5.724;2023-04-05T09:57:26;12.40;43.30
68922;DHT22;55959;51.244;5.724;2023-04-05T09:59:55;12.40;42.80
68922;DHT22;55959;51.244;5.724;2023-04-05T10:02:21;12.40;42.40
68922;DHT22;55959;51.244;5.724;2023-04-05T10:04:48;12.40;42.40
68922;DHT22;55959;51.244;5.724;2023-04-05T10:07:16;12.40;43.20
68922;DHT22;55959;51.244;5.724;2023-04-05T10:09:44;12.50;43.60
68922;DHT22;55959;51.244;5.724;2023-04-05T10:12:31;12.50;43.90
68922;DHT22;55959;51.244;5.724;2023-04-05T10:14:58;12.60;44.20
68922;DHT22;55959;51.244;5.724;2023-04-05T10:20:16;12.60;43.20
68922;DHT22;55959;51.244;5.724;2023-04-05T10:28:34;12.70;43.30
68922;DHT22;55959;51.244;5.724;2023-04-05T10:31:28;12.70;43.80
68922;DHT22;55959;51.244;5.724;2023-04-05T10:34:04;12.80;44.10
68922;DHT22;55959;51.244;5.724;2023-04-05T10:36:48;12.80;43.80
68922;DHT22;55959;51.244;5.724;2023-04-05T10:39:26;12.80;43.20
68922;DHT22;55959;51.244;5.724;2023-04-05T10:42:20;12.90;43.20
68922;DHT22;55959;51.244;5.724;2023-04-05T10:44:52;12.90;41.60
68922;DHT22;55959;51.244;5.724;2023-04-05T10:47:27;13.00;41.40
68922;DHT22;55959;51.244;5.724;2023-04-05T10:49:59;13.00;41.20
68922;DHT22;55959;51.244;5.724;2023-04-05T10:52:28;13.00;40.50
68922;DHT22;55959;51.244;5.724;2023-04-05T10:54:55;13.10;41.00
68922;DHT22;55959;51.244;5.724;2023-04-05T10:57:25;13.00;41.20
68922;DHT22;55959;51.244;5.724;2023-04-05T10:59:52;13.10;41.80
68922;DHT22;55959;51.244;5.724;2023-04-05T11:02:19;13.10;41.70
68922;DHT22;55959;51.244;5.724;2023-04-05T11:04:45;13.20;41.40
68922;DHT22;55959;51.244;5.724;2023-04-05T11:07:16;13.20;41.20
68922;DHT22;55959;51.244;5.724;2023-04-05T11:18:10;13.40;39.80
68922;DHT22;55959;51.244;5.724;2023-04-05T11:23:21;13.40;40.30
68922;DHT22;55959;51.244;5.724;2023-04-05T11:25:54;13.50;40.40
68922;DHT22;55959;51.244;5.724;2023-04-05T11:28:29;13.50;39.30
68922;DHT22;55959;51.244;5.724;2023-04-05T11:30:57;13.50;39.60
68922;DHT22;55959;51.244;5.724;2023-04-05T11:36:32;13.60;40.70
68922;DHT22;55959;51.244;5.724;2023-04-05T11:41:57;13.70;41.70
68922;DHT22;55959;51.244;5.724;2023-04-05T11:44:25;13.80;41.70
68922;DHT22;55959;51.244;5.724;2023-04-05T11:46:52;13.80;41.30
68922;DHT22;55959;51.244;5.724;2023-04-05T11:49:21;13.90;40.40
68922;DHT22;55959;51.244;5.724;2023-04-05T11:51:50;14.00;40.30
68922;DHT22;55959;51.244;5.724;2023-04-05T11:54:32;13.90;39.30
68922;DHT22;55959;51.244;5.724;2023-04-05T11:56:58;14.00;38.20
68922;DHT22;55959;51.244;5.724;2023-04-05T11:59:43;14.00;38.00
68922;DHT22;55959;51.244;5.724;2023-04-05T12:02:09;14.00;38.60
68922;DHT22;55959;51.244;5.724;2023-04-05T12:04:36;14.00;37.70
68922;DHT22;55959;51.244;5.724;2023-04-05T12:07:16;14.00;38.90
68922;DHT22;55959;51.244;5.724;2023-04-05T12:10:11;14.10;39.80
68922;DHT22;55959;51.244;5.724;2023-04-05T12:12:42;14.10;38.10
68922;DHT22;55959;51.244;5.724;2023-04-05T12:15:10;14.20;38.50
68922;DHT22;55959;51.244;5.724;2023-04-05T12:20:06;14.20;39.20
68922;DHT22;55959;51.244;5.724;2023-04-05T12:22:33;14.30;39.20
68922;DHT22;55959;51.244;5.724;2023-04-05T12:25:01;14.30;39.20
68922;DHT22;55959;51.244;5.724;2023-04-05T12:27:27;14.40;39.50
68922;DHT22;55959;51.244;5.724;2023-04-05T12:32:44;14.50;38.30
68922;DHT22;55959;51.244;5.724;2023-04-05T12:35:11;14.60;39.00
68922;DHT22;55959;51.244;5.724;2023-04-05T12:37:38;14.60;39.70
68922;DHT22;55959;51.244;5.724;2023-04-05T12:40:06;14.70;39.40
68922;DHT22;55959;51.244;5.724;2023-04-05T12:42:33;14.80;39.10
68922;DHT22;55959;51.244;5.724;2023-04-05T12:45:22;14.80;38.60
68922;DHT22;55959;51.244;5.724;2023-04-05T12:47:52;14.90;38.50
68922;DHT22;55959;51.244;5.724;2023-04-05T12:50:26;14.90;38.30
68922;DHT22;55959;51.244;5.724;2023-04-05T12:53:00;15.00;38.50
68922;DHT22;55959;51.244;5.724;2023-04-05T12:55:30;15.00;37.20
68922;DHT22;55959;51.244;5.724;2023-04-05T12:57:59;15.10;37.80
68922;DHT22;55959;51.244;5.724;2023-04-05T13:00:27;15.10;36.10
68922;DHT22;55959;51.244;5.724;2023-04-05T13:02:55;15.10;36.60
68922;DHT22;55959;51.244;5.724;2023-04-05T13:05:24;15.20;36.60
68922;DHT22;55959;51.244;5.724;2023-04-05T13:07:51;15.20;36.10
68922;DHT22;55959;51.244;5.724;2023-04-05T13:10:21;15.30;36.50
68922;DHT22;55959;51.244;5.724;2023-04-05T13:12:48;15.30;36.40
68922;DHT22;55959;51.244;5.724;2023-04-05T13:15:16;15.40;36.50
68922;DHT22;55959;51.244;5.724;2023-04-05T13:17:42;15.40;36.30
68922;DHT22;55959;51.244;5.724;2023-04-05T13:20:14;15.40;36.40
68922;DHT22;55959;51.244;5.724;2023-04-05T13:22:42;15.50;35.90
68922;DHT22;55959;51.244;5.724;2023-04-05T13:25:08;15.50;35.70
68922;DHT22;55959;51.244;5.724;2023-04-05T13:27:34;15.50;35.50
68922;DHT22;55959;51.244;5.724;2023-04-05T13:30:00;15.60;35.20
68922;DHT22;55959;51.244;5.724;2023-04-05T13:32:26;15.60;35.40
68922;DHT22;55959;51.244;5.724;2023-04-05T13:34:52;15.60;35.60
68922;DHT22;55959;51.244;5.724;2023-04-05T13:37:17;15.60;35.10
68922;DHT22;55959;51.244;5.724;2023-04-05T13:39:43;15.70;35.90
68922;DHT22;55959;51.244;5.724;2023-04-05T13:42:09;15.70;36.30
68922;DHT22;55959;51.244;5.724;2023-04-05T13:44:35;15.80;36.40
68922;DHT22;55959;51.244;5.724;2023-04-05T13:47:04;15.80;36.40
68922;DHT22;55959;51.244;5.724;2023-04-05T13:49:30;15.80;36.80
68922;DHT22;55959;51.244;5.724;2023-04-05T13:51:56;15.90;36.20
68922;DHT22;55959;51.244;5.724;2023-04-05T13:54:21;16.00;36.10
68922;DHT22;55959;51.244;5.724;2023-04-05T13:56:47;16.00;36.50
68922;DHT22;55959;51.244;5.724;2023-04-05T13:59:13;16.10;36.60
68922;DHT22;55959;51.244;5.724;2023-04-05T14:01:44;16.10;35.50
68922;DHT22;55959;51.244;5.724;2023-04-05T14:04:11;16.10;35.20
68922;DHT22;55959;51.244;5.724;2023-04-05T14:06:38;16.20;35.10
68922;DHT22;55959;51.244;5.724;2023-04-05T14:09:04;16.20;35.00
68922;DHT22;55959;51.244;5.724;2023-04-05T14:11:31;16.20;34.80
68922;DHT22;55959;51.244;5.724;2023-04-05T14:13:57;16.30;34.70
68922;DHT22;55959;51.244;5.724;2023-04-05T14:16:23;16.30;34.70
68922;DHT22;55959;51.244;5.724;2023-04-05T14:18:48;16.40;35.00
68922;DHT22;55959;51.244;5.724;2023-04-05T14:21:14;16.40;35.10
68922;DHT22;55959;51.244;5.724;2023-04-05T14:23:40;16.40;34.70
68922;DHT22;55959;51.244;5.724;2023-04-05T14:26:06;16.50;34.90
68922;DHT22;55959;51.244;5.724;2023-04-05T14:28:32;16.50;36.10
68922;DHT22;55959;51.244;5.724;2023-04-05T14:30:58;16.60;35.80
68922;DHT22;55959;51.244;5.724;2023-04-05T14:33:24;16.70;35.70
68922;DHT22;55959;51.244;5.724;2023-04-05T14:35:51;16.70;35.80
68922;DHT22;55959;51.244;5.724;2023-04-05T14:38:18;16.80;36.10
68922;DHT22;55959;51.244;5.724;2023-04-05T14:40:43;16.80;36.20
68922;DHT22;55959;51.244;5.724;2023-04-05T14:43:09;16.90;36.10
68922;DHT22;55959;51.244;5.724;2023-04-05T14:45:35;16.90;35.80
68922;DHT22;55959;51.244;5.724;2023-04-05T14:48:01;17.00;34.90
68922;DHT22;55959;51.244;5.724;2023-04-05T14:50:27;17.00;34.10
68922;DHT22;55959;51.244;5.724;2023-04-05T14:52:57;17.00;33.30
68922;DHT22;55959;51.244;5.724;2023-04-05T14:55:23;17.00;33.30
68922;DHT22;55959;51.244;5.724;2023-04-05T14:57:49;17.00;33.50
68922;DHT22;55959;51.244;5.724;2023-04-05T15:00:15;17.00;33.30
68922;DHT22;55959;51.244;5.724;2023-04-05T15:02:41;17.00;33.40
68922;DHT22;55959;51.244;5.724;2023-04-05T15:05:08;17.00;32.60
68922;DHT22;55959;51.244;5.724;2023-04-05T15:07:34;17.00;33.10
68922;DHT22;55959;51.244;5.724;2023-04-05T15:10:00;17.00;33.40
68922;DHT22;55959;51.244;5.724;2023-04-05T15:12:26;17.00;33.70
68922;DHT22;55959;51.244;5.724;2023-04-05T15:14:51;17.00;34.00
68922;DHT22;55959;51.244;5.724;2023-04-05T15:17:21;17.00;34.00
68922;DHT22;55959;51.244;5.724;2023-04-05T15:19:47;17.00;33.60
68922;DHT22;55959;51.244;5.724;2023-04-05T15:22:13;17.00;33.50
68922;DHT22;55959;51.244;5.724;2023-04-05T15:24:40;17.00;33.70
68922;DHT22;55959;51.244;5.724;2023-04-05T15:27:07;17.00;33.70
68922;DHT22;55959;51.244;5.724;2023-04-05T15:29:33;17.00;33.10
68922;DHT22;55959;51.244;5.724;2023-04-05T15:31:59;17.10;32.80
68922;DHT22;55959;51.244;5.724;2023-04-05T15:34:27;17.10;32.50
68922;DHT22;55959;51.244;5.724;2023-04-05T15:36:53;17.00;32.20
68922;DHT22;55959;51.244;5.724;2023-04-05T15:39:20;17.00;32.00
68922;DHT22;55959;51.244;5.724;2023-04-05T15:41:46;17.00;32.30
68922;DHT22;55959;51.244;5.724;2023-04-05T15:44:15;17.00;32.20
68922;DHT22;55959;51.244;5.724;2023-04-05T15:46:41;17.00;32.70
68922;DHT22;55959;51.244;5.724;2023-04-05T15:49:07;17.00;32.80
68922;DHT22;55959;51.244;5.724;2023-04-05T15:51:35;17.00;32.30
68922;DHT22;55959;51.244;5.724;2023-04-05T15:54:04;17.00;32.10
68922;DHT22;55959;51.244;5.724;2023-04-05T15:56:30;17.00;31.80
68922;DHT22;55959;51.244;5.724;2023-04-05T15:58:56;16.90;32.00
68922;DHT22;55959;51.244;5.724;2023-04-05T16:01:22;16.90;32.20
68922;DHT22;55959;51.244;5.724;2023-04-05T16:03:48;16.90;32.20
68922;DHT22;55959;51.244;5.724;2023-04-05T16:06:14;16.90;32.20
68922;DHT22;55959;51.244;5.724;2023-04-05T16:08:40;16.90;32.80
68922;DHT22;55959;51.244;5.724;2023-04-05T16:11:05;16.90;32.90
68922;DHT22;55959;51.244;5.724;2023-04-05T16:13:34;16.90;32.20
68922;DHT22;55959;51.244;5.724;2023-04-05T16:16:00;16.90;32.50
68922;DHT22;55959;51.244;5.724;2023-04-05T16:18:26;17.00;31.90
68922;DHT22;55959;51.244;5.724;2023-04-05T16:20:54;16.90;31.70
68922;DHT22;55959;51.244;5.724;2023-04-05T16:23:20;16.90;31.80